sensor_id;sensor_type;location;lat;lon;timestamp;pressure;altitude;pressure_sealevel;temperature;humidity
11124;BME280;5616;42.692;23.312;2023-01-30T00:00:50;95420.84;;;1.52;80.49
11124;BME280;5616;42.692;23.312;2023-01-30T00:03:18;95415.84;;;1.62;79.53
11124;BME280;5616;42.692;23.312;2023-01-30T00:05:45;95420.03;;;1.63;79.60
11124;BME280;5616;42.692;23.312;2023-01-30T00:08:12;95405.53;;;1.63;81.62
11124;BME280;5616;42.692;23.312;2023-01-30T00:10:39;95412.84;;;1.68;80.62
11124;BME280;5616;42.692;23.312;2023-01-30T00:13:06;95413.97;;;1.64;80.33
11124;BME280;5616;42.692;23.312;2023-01-30T00:15:33;95411.44;;;1.64;81.41
11124;BME280;5616;42.692;23.312;2023-01-30T00:18:00;95410.28;;;1.68;81.92
11124;BME280;5616;42.692;23.312;2023-01-30T00:20:28;95408.34;;;1.60;81.97
11124;BME280;5616;42.692;23.312;2023-01-30T00:22:55;95411.00;;;1.59;81.30
11124;BME280;5616;42.692;23.312;2023-01-30T00:25:23;95406.94;;;1.67;81.53
11124;BME280;5616;42.692;23.312;2023-01-30T00:27:49;95418.25;;;1.74;81.52
11124;BME280;5616;42.692;23.312;2023-01-30T00:30:16;95413.59;;;1.79;80.38
11124;BME280;5616;42.692;23.312;2023-01-30T00:32:43;95413.25;;;1.84;80.02
11124;BME280;5616;42.692;23.312;2023-01-30T00:35:10;95412.47;;;1.72;81.51
11124;BME280;5616;42.692;23.312;2023-01-30T00:37:38;95410.75;;;1.73;80.03
11124;BME280;5616;42.692;23.312;2023-01-30T00:40:06;95407.84;;;1.66;80.15
11124;BME280;5616;42.692;23.312;2023-01-30T00:42:32;95394.78;;;1.71;81.80
11124;BME280;5616;42.692;23.312;2023-01-30T00:45:17;95397.66;;;1.77;81.47
11124;BME280;5616;42.692;23.312;2023-01-30T00:48:01;95394.53;;;1.74;81.54
11124;BME280;5616;42.692;23.312;2023-01-30T00:50:28;95385.72;;;1.78;80.68
11124;BME280;5616;42.692;23.312;2023-01-30T00:53:09;95391.50;;;1.80;79.68
11124;BME280;5616;42.692;23.312;2023-01-30T00:55:37;95390.00;;;1.77;79.42
11124;BME280;5616;42.692;23.312;2023-01-30T00:58:05;95387.16;;;1.60;80.25
11124;BME280;5616;42.692;23.312;2023-01-30T01:00:32;95385.31;;;1.62;81.52
11124;BME280;5616;42.692;23.312;2023-01-30T01:02:59;95383.13;;;1.57;80.77
11124;BME280;5616;42.692;23.312;2023-01-30T01:05:27;95395.72;;;1.48;81.73
11124;BME280;5616;42.692;23.312;2023-01-30T01:07:54;95382.91;;;1.49;80.72
11124;BME280;5616;42.692;23.312;2023-01-30T01:10:23;95384.19;;;1.44;79.67
11124;BME280;5616;42.692;23.312;2023-01-30T01:12:50;95376.84;;;1.18;80.99
11124;BME280;5616;42.692;23.312;2023-01-30T01:15:18;95387.69;;;1.32;81.93
11124;BME280;5616;42.692;23.312;2023-01-30T01:17:47;95385.81;;;1.34;81.57
11124;BME280;5616;42.692;23.312;2023-01-30T01:20:14;95386.28;;;1.28;80.71
11124;BME280;5616;42.692;23.312;2023-01-30T01:22:41;95382.81;;;1.29;81.73
11124;BME280;5616;42.692;23.312;2023-01-30T01:25:09;95373.22;;;1.32;81.52
11124;BME280;5616;42.692;23.312;2023-01-30T01:27:39;95369.38;;;1.38;81.92
11124;BME280;5616;42.692;23.312;2023-01-30T01:30:07;95366.03;;;1.37;80.18
11124;BME280;5616;42.692;23.312;2023-01-30T01:32:35;95361.06;;;1.36;80.77
11124;BME280;5616;42.692;23.312;2023-01-30T01:35:02;95362.13;;;1.33;80.42
11124;BME280;5616;42.692;23.312;2023-01-30T01:37:29;95358.75;;;1.33;80.55
11124;BME280;5616;42.692;23.312;2023-01-30T01:39:56;95355.31;;;1.34;80.09
11124;BME280;5616;42.692;23.312;2023-01-30T01:42:41;95366.06;;;1.26;79.64
11124;BME280;5616;42.692;23.312;2023-01-30T01:45:20;95362.59;;;1.27;80.84
11124;BME280;5616;42.692;23.312;2023-01-30T01:47:56;95368.25;;;1.19;81.96
11124;BME280;5616;42.692;23.312;2023-01-30T01:50:28;95362.72;;;1.26;80.43
11124;BME280;5616;42.692;23.312;2023-01-30T01:52:58;95361.31;;;1.33;81.35
11124;BME280;5616;42.692;23.312;2023-01-30T01:55:28;95365.94;;;1.39;80.30
11124;BME280;5616;42.692;23.312;2023-01-30T01:58:02;95365.25;;;1.26;81.40
11124;BME280;5616;42.692;23.312;2023-01-30T02:00:31;95370.78;;;1.31;81.82
11124;BME280;5616;42.692;23.312;2023-01-30T02:03:00;95362.00;;;1.35;80.75
11124;BME280;5616;42.692;23.312;2023-01-30T02:05:29;95367.66;;;1.16;82.15
11124;BME280;5616;42.692;23.312;2023-01-30T02:07:59;95362.72;;;1.14;82.78
11124;BME280;5616;42.692;23.312;2023-01-30T02:10:35;95367.34;;;0.87;82.93
11124;BME280;5616;42.692;23.312;2023-01-30T02:13:04;95370.69;;;0.88;83.55
11124;BME280;5616;42.692;23.312;2023-01-30T02:15:32;95369.88;;;0.98;83.02
11124;BME280;5616;42.692;23.312;2023-01-30T02:17:59;95364.78;;;0.98;82.74
11124;BME280;5616;42.692;23.312;2023-01-30T02:20:30;95371.50;;;1.10;82.60
11124;BME280;5616;42.692;23.312;2023-01-30T02:26:44;95359.84;;;0.97;83.79
11124;BME280;5616;42.692;23.312;2023-01-30T02:32:12;95368.28;;;0.86;82.90
11124;BME280;5616;42.692;23.312;2023-01-30T02:34:48;95364.00;;;0.76;83.91
11124;BME280;5616;42.692;23.312;2023-01-30T02:37:26;95359.25;;;0.82;83.17
11124;BME280;5616;42.692;23.312;2023-01-30T02:40:10;95357.75;;;0.91;83.28
11124;BME280;5616;42.692;23.312;2023-01-30T02:42:46;95359.84;;;1.08;82.32
11124;BME280;5616;42.692;23.312;2023-01-30T02:45:21;95355.09;;;0.92;81.82
11124;BME280;5616;42.692;23.312;2023-01-30T02:47:56;95346.53;;;1.04;82.67
11124;BME280;5616;42.692;23.312;2023-01-30T02:50:28;95344.91;;;1.14;82.25
11124;BME280;5616;42.692;23.312;2023-01-30T02:52:56;95347.69;;;1.22;80.18
11124;BME280;5616;42.692;23.312;2023-01-30T02:55:26;95340.41;;;1.18;80.79
11124;BME280;5616;42.692;23.312;2023-01-30T02:57:54;95347.91;;;1.08;81.84
11124;BME280;5616;42.692;23.312;2023-01-30T03:00:25;95359.34;;;1.03;82.19
11124;BME280;5616;42.692;23.312;2023-01-30T03:03:24;95360.41;;;1.11;80.02
11124;BME280;5616;42.692;23.312;2023-01-30T03:06:08;95362.59;;;1.16;80.43
11124;BME280;5616;42.692;23.312;2023-01-30T03:08:49;95363.31;;;1.18;80.78
11124;BME280;5616;42.692;23.312;2023-01-30T03:11:22;95353.69;;;1.21;80.44
11124;BME280;5616;42.692;23.312;2023-01-30T03:13:53;95349.31;;;1.23;80.39
11124;BME280;5616;42.692;23.312;2023-01-30T03:16:24;95345.81;;;1.24;80.43
11124;BME280;5616;42.692;23.312;2023-01-30T03:18:55;95347.81;;;1.10;81.20
11124;BME280;5616;42.692;23.312;2023-01-30T03:21:22;95347.91;;;1.19;80.07
11124;BME280;5616;42.692;23.312;2023-01-30T03:23:51;95337.03;;;1.29;79.07
11124;BME280;5616;42.692;23.312;2023-01-30T03:26:21;95326.88;;;1.29;78.99
11124;BME280;5616;42.692;23.312;2023-01-30T03:28:50;95322.69;;;1.28;78.96
11124;BME280;5616;42.692;23.312;2023-01-30T03:31:18;95326.63;;;1.32;78.84
11124;BME280;5616;42.692;23.312;2023-01-30T03:33:45;95311.03;;;1.25;79.14
11124;BME280;5616;42.692;23.312;2023-01-30T03:36:14;95311.84;;;1.26;78.90
11124;BME280;5616;42.692;23.312;2023-01-30T03:38:41;95318.19;;;1.31;78.83
11124;BME280;5616;42.692;23.312;2023-01-30T03:41:08;95323.38;;;1.30;78.48
11124;BME280;5616;42.692;23.312;2023-01-30T03:43:35;95302.50;;;1.15;79.21
11124;BME280;5616;42.692;23.312;2023-01-30T03:46:04;95324.56;;;1.14;80.88
11124;BME280;5616;42.692;23.312;2023-01-30T03:48:31;95308.41;;;1.15;79.75
11124;BME280;5616;42.692;23.312;2023-01-30T03:50:58;95316.81;;;1.16;80.71
11124;BME280;5616;42.692;23.312;2023-01-30T03:53:26;95310.44;;;1.21;80.37
11124;BME280;5616;42.692;23.312;2023-01-30T03:55:53;95313.44;;;1.27;80.99
11124;BME280;5616;42.692;23.312;2023-01-30T03:58:24;95313.72;;;1.23;80.74
11124;BME280;5616;42.692;23.312;2023-01-30T04:00:54;95312.06;;;1.22;80.62
11124;BME280;5616;42.692;23.312;2023-01-30T04:03:22;95310.13;;;1.15;79.84
11124;BME280;5616;42.692;23.312;2023-01-30T04:05:51;95306.31;;;1.20;79.64
11124;BME280;5616;42.692;23.312;2023-01-30T04:08:18;95308.84;;;1.20;80.77
11124;BME280;5616;42.692;23.312;2023-01-30T04:10:46;95297.88;;;1.20;79.57
11124;BME280;5616;42.692;23.312;2023-01-30T04:13:13;95308.25;;;1.28;78.62
11124;BME280;5616;42.692;23.312;2023-01-30T04:15:40;95309.09;;;1.17;80.93
11124;BME280;5616;42.692;23.312;2023-01-30T04:18:26;95305.81;;;1.27;79.25
11124;BME280;5616;42.692;23.312;2023-01-30T04:20:58;95306.91;;;1.13;80.71
11124;BME280;5616;42.692;23.312;2023-01-30T04:23:33;95307.00;;;1.22;79.70
11124;BME280;5616;42.692;23.312;2023-01-30T04:26:03;95303.75;;;1.20;79.03
11124;BME280;5616;42.692;23.312;2023-01-30T04:28:33;95302.50;;;1.15;80.06
11124;BME280;5616;42.692;23.312;2023-01-30T04:31:01;95309.31;;;1.14;80.19
11124;BME280;5616;42.692;23.312;2023-01-30T04:33:43;95307.72;;;1.02;81.10
11124;BME280;5616;42.692;23.312;2023-01-30T04:36:11;95311.19;;;1.01;81.63
11124;BME280;5616;42.692;23.312;2023-01-30T04:38:39;95301.16;;;1.00;80.84
11124;BME280;5616;42.692;23.312;2023-01-30T04:41:07;95302.19;;;0.97;82.18
11124;BME280;5616;42.692;23.312;2023-01-30T04:43:38;95301.00;;;1.01;80.04
11124;BME280;5616;42.692;23.312;2023-01-30T04:46:14;95290.97;;;0.89;80.69
11124;BME280;5616;42.692;23.312;2023-01-30T04:48:41;95298.03;;;0.85;80.43
11124;BME280;5616;42.692;23.312;2023-01-30T04:51:08;95297.22;;;0.85;81.57
11124;BME280;5616;42.692;23.312;2023-01-30T04:53:36;95288.44;;;0.89;82.04
11124;BME280;5616;42.692;23.312;2023-01-30T04:56:04;95283.69;;;0.95;81.45
11124;BME280;5616;42.692;23.312;2023-01-30T04:58:32;95281.38;;;1.03;81.18
11124;BME280;5616;42.692;23.312;2023-01-30T05:01:12;95289.22;;;1.11;80.93
11124;BME280;5616;42.692;23.312;2023-01-30T05:03:38;95280.06;;;1.20;80.71
11124;BME280;5616;42.692;23.312;2023-01-30T05:06:06;95285.63;;;1.14;81.27
11124;BME280;5616;42.692;23.312;2023-01-30T05:08:33;95281.34;;;1.14;80.08
11124;BME280;5616;42.692;23.312;2023-01-30T05:10:59;95277.44;;;1.10;81.06
11124;BME280;5616;42.692;23.312;2023-01-30T05:13:26;95279.03;;;1.11;81.08
11124;BME280;5616;42.692;23.312;2023-01-30T05:15:54;95288.66;;;1.08;80.94
11124;BME280;5616;42.692;23.312;2023-01-30T05:18:21;95279.50;;;1.05;80.92
11124;BME280;5616;42.692;23.312;2023-01-30T05:20:48;95284.59;;;1.05;81.05
11124;BME280;5616;42.692;23.312;2023-01-30T05:23:15;95290.47;;;1.06;81.60
11124;BME280;5616;42.692;23.312;2023-01-30T05:25:42;95287.50;;;1.01;82.50
11124;BME280;5616;42.692;23.312;2023-01-30T05:28:09;95287.03;;;1.07;82.04
11124;BME280;5616;42.692;23.312;2023-01-30T05:30:36;95296.44;;;0.84;84.14
11124;BME280;5616;42.692;23.312;2023-01-30T05:33:04;95293.16;;;0.93;83.94
11124;BME280;5616;42.692;23.312;2023-01-30T05:35:30;95293.16;;;0.82;85.24
11124;BME280;5616;42.692;23.312;2023-01-30T05:37:57;95295.84;;;0.92;83.23
11124;BME280;5616;42.692;23.312;2023-01-30T05:40:24;95294.78;;;0.94;84.19
11124;BME280;5616;42.692;23.312;2023-01-30T05:42:52;95292.03;;;0.97;84.44
11124;BME280;5616;42.692;23.312;2023-01-30T05:45:19;95298.00;;;1.07;83.01
11124;BME280;5616;42.692;23.312;2023-01-30T05:47:49;95293.75;;;0.75;84.11
11124;BME280;5616;42.692;23.312;2023-01-30T05:50:18;95290.63;;;0.82;84.58
11124;BME280;5616;42.692;23.312;2023-01-30T05:52:45;95294.88;;;0.93;83.21
11124;BME280;5616;42.692;23.312;2023-01-30T05:55:12;95302.19;;;0.97;83.06
11124;BME280;5616;42.692;23.312;2023-01-30T05:57:39;95295.00;;;1.02;83.16
11124;BME280;5616;42.692;23.312;2023-01-30T06:00:06;95301.69;;;1.03;83.56
11124;BME280;5616;42.692;23.312;2023-01-30T06:02:38;95308.28;;;1.06;83.87
11124;BME280;5616;42.692;23.312;2023-01-30T06:05:05;95303.31;;;1.15;83.21
11124;BME280;5616;42.692;23.312;2023-01-30T06:07:34;95305.97;;;1.14;83.34
11124;BME280;5616;42.692;23.312;2023-01-30T06:10:00;95308.19;;;1.07;82.56
11124;BME280;5616;42.692;23.312;2023-01-30T06:12:27;95295.56;;;1.06;82.79
11124;BME280;5616;42.692;23.312;2023-01-30T06:14:54;95304.00;;;1.06;82.94
11124;BME280;5616;42.692;23.312;2023-01-30T06:17:21;95301.75;;;0.81;84.94
11124;BME280;5616;42.692;23.312;2023-01-30T06:19:47;95304.84;;;0.96;84.77
11124;BME280;5616;42.692;23.312;2023-01-30T06:22:14;95302.06;;;0.99;83.71
11124;BME280;5616;42.692;23.312;2023-01-30T06:24:42;95295.81;;;1.03;83.95
11124;BME280;5616;42.692;23.312;2023-01-30T06:27:09;95298.47;;;0.79;85.52
11124;BME280;5616;42.692;23.312;2023-01-30T06:29:36;95303.69;;;0.67;85.86
11124;BME280;5616;42.692;23.312;2023-01-30T06:32:03;95295.84;;;0.81;85.67
11124;BME280;5616;42.692;23.312;2023-01-30T06:34:30;95300.34;;;0.88;84.39
11124;BME280;5616;42.692;23.312;2023-01-30T06:36:57;95299.88;;;0.94;84.03
11124;BME280;5616;42.692;23.312;2023-01-30T06:39:24;95298.69;;;0.98;84.79
11124;BME280;5616;42.692;23.312;2023-01-30T06:41:52;95298.69;;;0.98;85.07
11124;BME280;5616;42.692;23.312;2023-01-30T06:44:19;95297.06;;;1.08;85.11
11124;BME280;5616;42.692;23.312;2023-01-30T06:46:45;95298.00;;;1.07;85.04
11124;BME280;5616;42.692;23.312;2023-01-30T06:49:12;95299.84;;;1.05;85.30
11124;BME280;5616;42.692;23.312;2023-01-30T06:51:39;95296.97;;;1.10;85.14
11124;BME280;5616;42.692;23.312;2023-01-30T06:54:06;95300.09;;;1.02;83.15
11124;BME280;5616;42.692;23.312;2023-01-30T06:56:33;95307.81;;;1.01;84.40
11124;BME280;5616;42.692;23.312;2023-01-30T06:59:01;95303.09;;;1.07;84.91
11124;BME280;5616;42.692;23.312;2023-01-30T07:01:27;95309.31;;;1.14;84.62
11124;BME280;5616;42.692;23.312;2023-01-30T07:03:54;95307.94;;;1.10;84.70
11124;BME280;5616;42.692;23.312;2023-01-30T07:06:21;95311.25;;;1.22;84.08
11124;BME280;5616;42.692;23.312;2023-01-30T07:08:48;95300.53;;;1.18;83.58
11124;BME280;5616;42.692;23.312;2023-01-30T07:11:15;95308.03;;;1.20;83.29
11124;BME280;5616;42.692;23.312;2023-01-30T07:13:41;95307.47;;;1.16;82.71
11124;BME280;5616;42.692;23.312;2023-01-30T07:16:09;95322.03;;;1.03;84.88
11124;BME280;5616;42.692;23.312;2023-01-30T07:18:36;95313.03;;;1.10;83.58
11124;BME280;5616;42.692;23.312;2023-01-30T07:21:03;95314.75;;;1.21;82.91
11124;BME280;5616;42.692;23.312;2023-01-30T07:23:30;95321.06;;;1.27;82.90
11124;BME280;5616;42.692;23.312;2023-01-30T07:25:57;95313.22;;;1.30;82.18
11124;BME280;5616;42.692;23.312;2023-01-30T07:28:23;95314.84;;;1.31;82.99
11124;BME280;5616;42.692;23.312;2023-01-30T07:30:50;95320.50;;;1.34;82.46
11124;BME280;5616;42.692;23.312;2023-01-30T07:33:19;95322.91;;;1.36;81.75
11124;BME280;5616;42.692;23.312;2023-01-30T07:35:46;95321.28;;;1.35;82.49
11124;BME280;5616;42.692;23.312;2023-01-30T07:38:12;95336.00;;;1.31;81.81
11124;BME280;5616;42.692;23.312;2023-01-30T07:40:39;95330.78;;;1.33;81.47
11124;BME280;5616;42.692;23.312;2023-01-30T07:43:09;95340.06;;;1.22;82.80
11124;BME280;5616;42.692;23.312;2023-01-30T07:45:39;95328.03;;;1.24;82.17
11124;BME280;5616;42.692;23.312;2023-01-30T07:48:06;95332.88;;;1.28;82.75
11124;BME280;5616;42.692;23.312;2023-01-30T07:50:34;95326.97;;;1.27;82.03
11124;BME280;5616;42.692;23.312;2023-01-30T07:53:02;95327.56;;;1.31;82.24
11124;BME280;5616;42.692;23.312;2023-01-30T07:55:29;95331.00;;;1.30;82.24
11124;BME280;5616;42.692;23.312;2023-01-30T07:57:56;95323.38;;;1.41;82.34
11124;BME280;5616;42.692;23.312;2023-01-30T08:00:24;95318.25;;;1.52;81.38
11124;BME280;5616;42.692;23.312;2023-01-30T08:02:50;95306.56;;;1.60;81.42
11124;BME280;5616;42.692;23.312;2023-01-30T08:05:17;95305.50;;;1.63;81.03
11124;BME280;5616;42.692;23.312;2023-01-30T08:07:45;95298.66;;;1.63;81.36
11124;BME280;5616;42.692;23.312;2023-01-30T08:10:13;95287.13;;;1.59;80.70
11124;BME280;5616;42.692;23.312;2023-01-30T08:12:40;95297.06;;;1.62;79.21
11124;BME280;5616;42.692;23.312;2023-01-30T08:15:08;95300.03;;;1.67;79.86
11124;BME280;5616;42.692;23.312;2023-01-30T08:17:36;95300.84;;;1.68;80.14
11124;BME280;5616;42.692;23.312;2023-01-30T08:20:04;95290.72;;;1.57;80.15
11124;BME280;5616;42.692;23.312;2023-01-30T08:22:31;95295.75;;;1.68;80.00
11124;BME280;5616;42.692;23.312;2023-01-30T08:24:59;95295.56;;;1.60;79.92
11124;BME280;5616;42.692;23.312;2023-01-30T08:27:25;95287.94;;;1.60;80.90
11124;BME280;5616;42.692;23.312;2023-01-30T08:29:52;95283.66;;;1.60;80.29
11124;BME280;5616;42.692;23.312;2023-01-30T08:32:19;95289.25;;;1.75;79.71
11124;BME280;5616;42.692;23.312;2023-01-30T08:34:46;95274.47;;;1.69;79.89
11124;BME280;5616;42.692;23.312;2023-01-30T08:37:13;95285.53;;;1.79;80.16
11124;BME280;5616;42.692;23.312;2023-01-30T08:39:39;95275.84;;;1.73;80.24
11124;BME280;5616;42.692;23.312;2023-01-30T08:42:08;95278.81;;;1.78;79.43
11124;BME280;5616;42.692;23.312;2023-01-30T08:44:34;95274.34;;;1.70;81.29
11124;BME280;5616;42.692;23.312;2023-01-30T08:47:01;95279.25;;;1.62;81.61
11124;BME280;5616;42.692;23.312;2023-01-30T08:49:28;95272.34;;;1.74;80.46
11124;BME280;5616;42.692;23.312;2023-01-30T08:51:55;95260.03;;;1.58;80.74
11124;BME280;5616;42.692;23.312;2023-01-30T08:54:22;95268.00;;;1.65;80.92
11124;BME280;5616;42.692;23.312;2023-01-30T08:56:49;95262.97;;;1.74;80.65
11124;BME280;5616;42.692;23.312;2023-01-30T08:59:17;95262.50;;;1.80;79.21
11124;BME280;5616;42.692;23.312;2023-01-30T09:01:44;95259.13;;;1.59;80.70
11124;BME280;5616;42.692;23.312;2023-01-30T09:04:10;95259.69;;;1.63;79.36
11124;BME280;5616;42.692;23.312;2023-01-30T09:06:37;95259.34;;;1.88;78.79
11124;BME280;5616;42.692;23.312;2023-01-30T09:09:04;95255.00;;;1.79;79.68
11124;BME280;5616;42.692;23.312;2023-01-30T09:11:31;95252.38;;;1.38;79.92
11124;BME280;5616;42.692;23.312;2023-01-30T09:13:57;95248.56;;;1.32;80.03
11124;BME280;5616;42.692;23.312;2023-01-30T09:16:26;95249.78;;;1.49;79.29
11124;BME280;5616;42.692;23.312;2023-01-30T09:18:52;95252.97;;;1.62;79.74
11124;BME280;5616;42.692;23.312;2023-01-30T09:21:19;95250.25;;;1.74;79.42
11124;BME280;5616;42.692;23.312;2023-01-30T09:23:47;95247.38;;;1.79;78.05
11124;BME280;5616;42.692;23.312;2023-01-30T09:26:13;95239.72;;;1.79;76.95
11124;BME280;5616;42.692;23.312;2023-01-30T09:28:40;95246.75;;;1.87;77.93
11124;BME280;5616;42.692;23.312;2023-01-30T09:31:07;95251.44;;;1.70;79.12
11124;BME280;5616;42.692;23.312;2023-01-30T09:33:35;95249.94;;;1.68;77.83
11124;BME280;5616;42.692;23.312;2023-01-30T09:36:02;95247.59;;;1.55;79.15
11124;BME280;5616;42.692;23.312;2023-01-30T09:38:29;95242.31;;;1.68;78.32
11124;BME280;5616;42.692;23.312;2023-01-30T09:41:13;95239.97;;;1.76;77.83
11124;BME280;5616;42.692;23.312;2023-01-30T09:43:53;95240.22;;;1.73;78.75
11124;BME280;5616;42.692;23.312;2023-01-30T09:46:33;95237.56;;;1.63;79.02
11124;BME280;5616;42.692;23.312;2023-01-30T09:49:14;95228.84;;;1.77;79.34
11124;BME280;5616;42.692;23.312;2023-01-30T09:51:54;95229.97;;;1.84;78.54
11124;BME280;5616;42.692;23.312;2023-01-30T09:54:27;95229.34;;;1.92;77.61
11124;BME280;5616;42.692;23.312;2023-01-30T09:57:00;95226.00;;;1.91;78.05
11124;BME280;5616;42.692;23.312;2023-01-30T09:59:41;95224.69;;;1.76;78.48
11124;BME280;5616;42.692;23.312;2023-01-30T10:02:23;95219.53;;;1.87;78.43
11124;BME280;5616;42.692;23.312;2023-01-30T10:04:54;95213.50;;;1.88;78.14
11124;BME280;5616;42.692;23.312;2023-01-30T10:07:28;95212.78;;;1.97;77.62
11124;BME280;5616;42.692;23.312;2023-01-30T10:10:07;95200.66;;;1.90;77.37
11124;BME280;5616;42.692;23.312;2023-01-30T10:12:43;95198.44;;;1.75;78.05
11124;BME280;5616;42.692;23.312;2023-01-30T10:15:37;95186.53;;;1.76;78.34
11124;BME280;5616;42.692;23.312;2023-01-30T10:18:37;95185.41;;;1.90;78.76
11124;BME280;5616;42.692;23.312;2023-01-30T10:21:16;95173.09;;;1.95;77.85
11124;BME280;5616;42.692;23.312;2023-01-30T10:24:05;95177.63;;;1.91;77.38
11124;BME280;5616;42.692;23.312;2023-01-30T10:26:35;95174.97;;;1.72;76.58
11124;BME280;5616;42.692;23.312;2023-01-30T10:29:05;95177.25;;;1.75;75.01
11124;BME280;5616;42.692;23.312;2023-01-30T10:31:38;95163.25;;;1.60;76.92
11124;BME280;5616;42.692;23.312;2023-01-30T10:34:11;95168.28;;;1.71;74.96
11124;BME280;5616;42.692;23.312;2023-01-30T10:36:46;95155.66;;;1.69;75.50
11124;BME280;5616;42.692;23.312;2023-01-30T10:39:23;95146.28;;;1.70;75.41
11124;BME280;5616;42.692;23.312;2023-01-30T10:41:55;95135.19;;;1.71;74.48
11124;BME280;5616;42.692;23.312;2023-01-30T10:44:25;95141.94;;;1.61;74.93
11124;BME280;5616;42.692;23.312;2023-01-30T10:47:03;95136.41;;;1.56;74.59
11124;BME280;5616;42.692;23.312;2023-01-30T10:49:38;95129.16;;;1.51;74.57
11124;BME280;5616;42.692;23.312;2023-01-30T10:52:20;95127.47;;;1.61;74.79
11124;BME280;5616;42.692;23.312;2023-01-30T10:54:59;95114.75;;;1.61;74.04
11124;BME280;5616;42.692;23.312;2023-01-30T10:57:37;95113.19;;;1.70;74.29
11124;BME280;5616;42.692;23.312;2023-01-30T11:00:16;95102.81;;;1.82;74.58
11124;BME280;5616;42.692;23.312;2023-01-30T11:02:57;95085.41;;;1.88;74.69
11124;BME280;5616;42.692;23.312;2023-01-30T11:05:26;95089.19;;;1.93;72.89
11124;BME280;5616;42.692;23.312;2023-01-30T11:07:56;95079.41;;;1.98;75.66
11124;BME280;5616;42.692;23.312;2023-01-30T11:10:24;95074.88;;;1.92;74.23
11124;BME280;5616;42.692;23.312;2023-01-30T11:12:52;95076.47;;;1.93;75.89
11124;BME280;5616;42.692;23.312;2023-01-30T11:15:21;95058.63;;;1.93;75.68
11124;BME280;5616;42.692;23.312;2023-01-30T11:17:49;95056.38;;;2.00;75.24
11124;BME280;5616;42.692;23.312;2023-01-30T11:20:18;95055.19;;;2.04;73.99
11124;BME280;5616;42.692;23.312;2023-01-30T11:22:47;95054.31;;;2.24;72.90
11124;BME280;5616;42.692;23.312;2023-01-30T11:25:17;95047.47;;;2.24;72.76
11124;BME280;5616;42.692;23.312;2023-01-30T11:27:52;95044.00;;;2.25;72.97
11124;BME280;5616;42.692;23.312;2023-01-30T11:30:20;95035.53;;;2.15;73.33
11124;BME280;5616;42.692;23.312;2023-01-30T11:32:48;95026.41;;;2.22;73.16
11124;BME280;5616;42.692;23.312;2023-01-30T11:35:22;95028.09;;;1.93;74.01
11124;BME280;5616;42.692;23.312;2023-01-30T11:37:50;95023.56;;;1.97;74.73
11124;BME280;5616;42.692;23.312;2023-01-30T11:40:25;95019.09;;;1.89;75.19
11124;BME280;5616;42.692;23.312;2023-01-30T11:43:00;95017.81;;;2.04;74.07
11124;BME280;5616;42.692;23.312;2023-01-30T11:45:29;95015.56;;;2.20;73.89
11124;BME280;5616;42.692;23.312;2023-01-30T11:48:01;95003.78;;;2.29;73.67
11124;BME280;5616;42.692;23.312;2023-01-30T11:50:32;95000.41;;;2.38;72.08
11124;BME280;5616;42.692;23.312;2023-01-30T11:53:01;94993.72;;;2.27;73.37
11124;BME280;5616;42.692;23.312;2023-01-30T11:55:32;94983.66;;;2.35;73.51
11124;BME280;5616;42.692;23.312;2023-01-30T11:58:06;94985.28;;;2.46;71.41
11124;BME280;5616;42.692;23.312;2023-01-30T12:00:37;94974.81;;;2.49;71.24
11124;BME280;5616;42.692;23.312;2023-01-30T12:03:09;94974.41;;;2.44;72.07
11124;BME280;5616;42.692;23.312;2023-01-30T12:05:38;94965.69;;;2.46;72.51
11124;BME280;5616;42.692;23.312;2023-01-30T12:08:22;94963.28;;;2.35;73.03
11124;BME280;5616;42.692;23.312;2023-01-30T12:10:54;94954.84;;;2.25;72.84
11124;BME280;5616;42.692;23.312;2023-01-30T12:13:27;94954.44;;;2.30;72.92
11124;BME280;5616;42.692;23.312;2023-01-30T12:16:15;94949.06;;;2.23;73.58
11124;BME280;5616;42.692;23.312;2023-01-30T12:18:49;94932.72;;;2.35;72.43
11124;BME280;5616;42.692;23.312;2023-01-30T12:21:27;94933.91;;;2.51;72.40
11124;BME280;5616;42.692;23.312;2023-01-30T12:24:07;94937.91;;;2.53;71.18
11124;BME280;5616;42.692;23.312;2023-01-30T12:26:42;94938.88;;;2.52;71.28
11124;BME280;5616;42.692;23.312;2023-01-30T12:29:20;94927.16;;;2.69;71.00
11124;BME280;5616;42.692;23.312;2023-01-30T12:31:52;94915.78;;;2.54;72.40
11124;BME280;5616;42.692;23.312;2023-01-30T12:34:24;94917.25;;;2.56;70.28
11124;BME280;5616;42.692;23.312;2023-01-30T12:36:56;94911.25;;;2.57;70.43
11124;BME280;5616;42.692;23.312;2023-01-30T12:39:37;94919.63;;;2.77;69.71
11124;BME280;5616;42.692;23.312;2023-01-30T12:42:22;94908.53;;;2.68;70.18
11124;BME280;5616;42.692;23.312;2023-01-30T12:45:00;94902.88;;;2.74;71.11
11124;BME280;5616;42.692;23.312;2023-01-30T12:47:42;94900.97;;;2.86;70.03
11124;BME280;5616;42.692;23.312;2023-01-30T12:50:20;94904.31;;;2.96;69.72
11124;BME280;5616;42.692;23.312;2023-01-30T12:53:13;94894.44;;;2.74;70.82
11124;BME280;5616;42.692;23.312;2023-01-30T12:55:49;94893.78;;;2.62;71.29
11124;BME280;5616;42.692;23.312;2023-01-30T12:58:23;94893.59;;;2.83;70.38
11124;BME280;5616;42.692;23.312;2023-01-30T13:01:02;94895.59;;;2.89;69.62
11124;BME280;5616;42.692;23.312;2023-01-30T13:03:39;94891.72;;;2.85;69.33
11124;BME280;5616;42.692;23.312;2023-01-30T13:06:18;94882.84;;;2.89;70.04
11124;BME280;5616;42.692;23.312;2023-01-30T13:09:00;94887.00;;;2.90;69.32
11124;BME280;5616;42.692;23.312;2023-01-30T13:11:40;94884.25;;;2.74;69.13
11124;BME280;5616;42.692;23.312;2023-01-30T13:14:19;94892.78;;;2.82;69.45
11124;BME280;5616;42.692;23.312;2023-01-30T13:16:58;94883.78;;;2.88;69.74
11124;BME280;5616;42.692;23.312;2023-01-30T13:19:34;94882.06;;;2.88;69.42
11124;BME280;5616;42.692;23.312;2023-01-30T13:22:09;94881.59;;;2.56;71.02
11124;BME280;5616;42.692;23.312;2023-01-30T13:24:56;94873.38;;;2.72;70.55
11124;BME280;5616;42.692;23.312;2023-01-30T13:27:26;94871.78;;;2.71;70.23
11124;BME280;5616;42.692;23.312;2023-01-30T13:29:57;94867.22;;;2.65;71.10
11124;BME280;5616;42.692;23.312;2023-01-30T13:32:37;94863.59;;;2.67;71.47
11124;BME280;5616;42.692;23.312;2023-01-30T13:35:13;94858.94;;;2.43;72.03